sensor_id;sensor_type;location;lat;lon;timestamp;temperature;humidity
22360;DHT22;11347;52.030;4.690;2022-09-24T00:01:48;18.90;58.40
22360;DHT22;11347;52.030;4.690;2022-09-24T00:04:16;18.90;58.70
22360;DHT22;11347;52.030;4.690;2022-09-24T00:06:45;18.90;58.90
22360;DHT22;11347;52.030;4.690;2022-09-24T00:09:16;18.90;58.90
22360;DHT22;11347;52.030;4.690;2022-09-24T00:11:43;18.90;59.10
22360;DHT22;11347;52.030;4.690;2022-09-24T00:14:10;18.90;59.50
22360;DHT22;11347;52.030;4.690;2022-09-24T00:16:36;18.90;59.70
22360;DHT22;11347;52.030;4.690;2022-09-24T00:19:03;18.90;59.80
22360;DHT22;11347;52.030;4.690;2022-09-24T00:21:32;18.90;59.90
22360;DHT22;11347;52.030;4.690;2022-09-24T00:24:11;18.90;60.00
22360;DHT22;11347;52.030;4.690;2022-09-24T00:26:58;18.90;60.10
22360;DHT22;11347;52.030;4.690;2022-09-24T00:29:24;18.90;60.30
22360;DHT22;11347;52.030;4.690;2022-09-24T00:31:51;18.90;60.30
22360;DHT22;11347;52.030;4.690;2022-09-24T00:34:17;18.90;60.30
22360;DHT22;11347;52.030;4.690;2022-09-24T00:36:43;18.90;60.50
22360;DHT22;11347;52.030;4.690;2022-09-24T00:39:11;18.90;60.40
22360;DHT22;11347;52.030;4.690;2022-09-24T00:41:38;18.90;60.50
22360;DHT22;11347;52.030;4.690;2022-09-24T00:47:15;18.90;60.30
22360;DHT22;11347;52.030;4.690;2022-09-24T00:49:46;18.90;60.40
22360;DHT22;11347;52.030;4.690;2022-09-24T00:52:13;18.90;60.50
22360;DHT22;11347;52.030;4.690;2022-09-24T00:54:39;18.90;60.50
22360;DHT22;11347;52.030;4.690;2022-09-24T00:57:05;18.90;60.60
22360;DHT22;11347;52.030;4.690;2022-09-24T00:59:31;18.90;60.50
22360;DHT22;11347;52.030;4.690;2022-09-24T01:01:57;18.90;60.60
22360;DHT22;11347;52.030;4.690;2022-09-24T01:04:25;18.90;60.80
22360;DHT22;11347;52.030;4.690;2022-09-24T01:06:51;18.90;60.70
22360;DHT22;11347;52.030;4.690;2022-09-24T01:09:19;18.90;60.70
22360;DHT22;11347;52.030;4.690;2022-09-24T01:12:23;18.90;60.70
22360;DHT22;11347;52.030;4.690;2022-09-24T01:15:04;18.90;60.60
22360;DHT22;11347;52.030;4.690;2022-09-24T01:17:42;18.90;60.60
22360;DHT22;11347;52.030;4.690;2022-09-24T01:23:01;18.90;60.80
22360;DHT22;11347;52.030;4.690;2022-09-24T01:28:26;18.80;60.70
22360;DHT22;11347;52.030;4.690;2022-09-24T01:30:59;18.80;60.60
22360;DHT22;11347;52.030;4.690;2022-09-24T01:33:28;18.80;60.70
22360;DHT22;11347;52.030;4.690;2022-09-24T01:35:59;18.80;60.70
22360;DHT22;11347;52.030;4.690;2022-09-24T01:38:32;18.90;60.90
22360;DHT22;11347;52.030;4.690;2022-09-24T01:41:01;18.80;61.30
22360;DHT22;11347;52.030;4.690;2022-09-24T01:43:28;18.80;60.80
22360;DHT22;11347;52.030;4.690;2022-09-24T01:45:55;18.80;60.90
22360;DHT22;11347;52.030;4.690;2022-09-24T01:48:25;18.80;61.10
22360;DHT22;11347;52.030;4.690;2022-09-24T01:50:59;18.90;61.20
22360;DHT22;11347;52.030;4.690;2022-09-24T01:53:31;18.90;61.30
22360;DHT22;11347;52.030;4.690;2022-09-24T01:56:07;18.90;61.40
22360;DHT22;11347;52.030;4.690;2022-09-24T01:59:00;18.80;61.30
22360;DHT22;11347;52.030;4.690;2022-09-24T02:01:39;18.80;61.30
22360;DHT22;11347;52.030;4.690;2022-09-24T02:04:11;18.80;61.40
22360;DHT22;11347;52.030;4.690;2022-09-24T02:07:06;18.80;61.50
22360;DHT22;11347;52.030;4.690;2022-09-24T02:09:40;18.80;61.60
22360;DHT22;11347;52.030;4.690;2022-09-24T02:14:50;18.80;61.50
22360;DHT22;11347;52.030;4.690;2022-09-24T02:17:19;18.80;61.50
22360;DHT22;11347;52.030;4.690;2022-09-24T02:19:48;18.80;61.40
22360;DHT22;11347;52.030;4.690;2022-09-24T02:22:16;18.80;61.40
22360;DHT22;11347;52.030;4.690;2022-09-24T02:25:03;18.80;61.40
22360;DHT22;11347;52.030;4.690;2022-09-24T02:27:30;18.90;61.40
22360;DHT22;11347;52.030;4.690;2022-09-24T02:29:56;18.80;61.40
22360;DHT22;11347;52.030;4.690;2022-09-24T02:32:25;18.80;61.40
22360;DHT22;11347;52.030;4.690;2022-09-24T02:34:54;18.80;61.40
22360;DHT22;11347;52.030;4.690;2022-09-24T02:37:23;18.80;61.40
22360;DHT22;11347;52.030;4.690;2022-09-24T02:39:48;18.80;61.40
22360;DHT22;11347;52.030;4.690;2022-09-24T02:42:15;18.80;61.40
22360;DHT22;11347;52.030;4.690;2022-09-24T02:44:43;18.80;61.40
22360;DHT22;11347;52.030;4.690;2022-09-24T02:47:08;18.80;61.40
22360;DHT22;11347;52.030;4.690;2022-09-24T02:49:34;18.80;61.20
22360;DHT22;11347;52.030;4.690;2022-09-24T02:52:00;18.80;61.40
22360;DHT22;11347;52.030;4.690;2022-09-24T02:54:25;18.80;61.40
22360;DHT22;11347;52.030;4.690;2022-09-24T02:56:52;18.80;61.50
22360;DHT22;11347;52.030;4.690;2022-09-24T02:59:17;18.80;61.40
22360;DHT22;11347;52.030;4.690;2022-09-24T03:01:46;18.80;61.50
22360;DHT22;11347;52.030;4.690;2022-09-24T03:04:12;18.80;61.50
22360;DHT22;11347;52.030;4.690;2022-09-24T03:06:38;18.80;61.50
22360;DHT22;11347;52.030;4.690;2022-09-24T03:09:04;18.80;61.40
22360;DHT22;11347;52.030;4.690;2022-09-24T03:11:30;18.80;61.60
22360;DHT22;11347;52.030;4.690;2022-09-24T03:13:57;18.80;61.70
22360;DHT22;11347;52.030;4.690;2022-09-24T03:16:24;18.80;61.70
22360;DHT22;11347;52.030;4.690;2022-09-24T03:18:49;18.80;62.00
22360;DHT22;11347;52.030;4.690;2022-09-24T03:21:18;18.80;62.10
22360;DHT22;11347;52.030;4.690;2022-09-24T03:23:44;18.80;62.00
22360;DHT22;11347;52.030;4.690;2022-09-24T03:26:10;18.80;61.90
22360;DHT22;11347;52.030;4.690;2022-09-24T03:28:36;18.80;61.80
22360;DHT22;11347;52.030;4.690;2022-09-24T03:31:03;18.80;61.80
22360;DHT22;11347;52.030;4.690;2022-09-24T03:33:37;18.80;61.70
22360;DHT22;11347;52.030;4.690;2022-09-24T03:36:11;18.80;61.60
22360;DHT22;11347;52.030;4.690;2022-09-24T03:38:38;18.80;61.50
22360;DHT22;11347;52.030;4.690;2022-09-24T03:41:05;18.80;61.50
22360;DHT22;11347;52.030;4.690;2022-09-24T03:43:31;18.80;61.40
22360;DHT22;11347;52.030;4.690;2022-09-24T03:45:58;18.80;61.10
22360;DHT22;11347;52.030;4.690;2022-09-24T03:48:24;18.80;61.00
22360;DHT22;11347;52.030;4.690;2022-09-24T03:50:51;18.80;60.90
22360;DHT22;11347;52.030;4.690;2022-09-24T03:53:17;18.80;61.00
22360;DHT22;11347;52.030;4.690;2022-09-24T03:55:44;18.80;60.90
22360;DHT22;11347;52.030;4.690;2022-09-24T03:58:11;18.80;61.00
22360;DHT22;11347;52.030;4.690;2022-09-24T04:00:37;18.80;61.30
22360;DHT22;11347;52.030;4.690;2022-09-24T04:03:04;18.80;61.30
22360;DHT22;11347;52.030;4.690;2022-09-24T04:05:30;18.80;61.40
22360;DHT22;11347;52.030;4.690;2022-09-24T04:07:56;18.80;61.30
22360;DHT22;11347;52.030;4.690;2022-09-24T04:10:22;18.80;61.40
22360;DHT22;11347;52.030;4.690;2022-09-24T04:12:50;18.70;61.20
22360;DHT22;11347;52.030;4.690;2022-09-24T04:15:17;18.70;61.40
22360;DHT22;11347;52.030;4.690;2022-09-24T04:17:53;18.70;61.50
22360;DHT22;11347;52.030;4.690;2022-09-24T04:20:21;18.70;61.60
22360;DHT22;11347;52.030;4.690;2022-09-24T04:22:51;18.70;61.60
22360;DHT22;11347;52.030;4.690;2022-09-24T04:25:17;18.80;61.80
22360;DHT22;11347;52.030;4.690;2022-09-24T04:27:43;18.80;61.90
22360;DHT22;11347;52.030;4.690;2022-09-24T04:30:11;18.80;62.00
22360;DHT22;11347;52.030;4.690;2022-09-24T04:32:38;18.70;61.70
22360;DHT22;11347;52.030;4.690;2022-09-24T04:35:04;18.70;61.60
22360;DHT22;11347;52.030;4.690;2022-09-24T04:37:30;18.70;61.60
22360;DHT22;11347;52.030;4.690;2022-09-24T04:39:55;18.80;61.80
22360;DHT22;11347;52.030;4.690;2022-09-24T04:42:21;18.70;61.70
22360;DHT22;11347;52.030;4.690;2022-09-24T04:44:47;18.80;61.70
22360;DHT22;11347;52.030;4.690;2022-09-24T04:47:13;18.80;61.90
22360;DHT22;11347;52.030;4.690;2022-09-24T04:49:40;18.80;62.00
22360;DHT22;11347;52.030;4.690;2022-09-24T04:52:07;18.70;61.90
22360;DHT22;11347;52.030;4.690;2022-09-24T04:54:33;18.70;61.70
22360;DHT22;11347;52.030;4.690;2022-09-24T04:56:58;18.70;61.60
22360;DHT22;11347;52.030;4.690;2022-09-24T04:59:24;18.70;61.90
22360;DHT22;11347;52.030;4.690;2022-09-24T05:01:49;18.70;61.90
22360;DHT22;11347;52.030;4.690;2022-09-24T05:04:15;18.70;62.00
22360;DHT22;11347;52.030;4.690;2022-09-24T05:06:41;18.70;61.90
22360;DHT22;11347;52.030;4.690;2022-09-24T05:09:07;18.80;61.90
22360;DHT22;11347;52.030;4.690;2022-09-24T05:11:32;18.80;61.90
22360;DHT22;11347;52.030;4.690;2022-09-24T05:13:58;18.70;61.70
22360;DHT22;11347;52.030;4.690;2022-09-24T05:16:24;18.70;61.60
22360;DHT22;11347;52.030;4.690;2022-09-24T05:18:49;18.70;61.60
22360;DHT22;11347;52.030;4.690;2022-09-24T05:21:15;18.70;61.90
22360;DHT22;11347;52.030;4.690;2022-09-24T05:23:41;18.70;61.90
22360;DHT22;11347;52.030;4.690;2022-09-24T05:26:06;18.70;61.80
22360;DHT22;11347;52.030;4.690;2022-09-24T05:28:51;18.70;61.90
22360;DHT22;11347;52.030;4.690;2022-09-24T05:31:17;18.70;61.80
22360;DHT22;11347;52.030;4.690;2022-09-24T05:33:42;18.70;61.90
22360;DHT22;11347;52.030;4.690;2022-09-24T05:36:08;18.70;62.10
22360;DHT22;11347;52.030;4.690;2022-09-24T05:38:34;18.70;62.20
22360;DHT22;11347;52.030;4.690;2022-09-24T05:40:59;18.70;62.00
22360;DHT22;11347;52.030;4.690;2022-09-24T05:43:25;18.70;61.80
22360;DHT22;11347;52.030;4.690;2022-09-24T05:45:52;18.70;61.70
22360;DHT22;11347;52.030;4.690;2022-09-24T05:48:19;18.70;61.70
22360;DHT22;11347;52.030;4.690;2022-09-24T05:50:45;18.70;61.70
22360;DHT22;11347;52.030;4.690;2022-09-24T05:53:11;18.70;61.60
22360;DHT22;11347;52.030;4.690;2022-09-24T05:55:37;18.70;61.60
22360;DHT22;11347;52.030;4.690;2022-09-24T05:58:08;18.70;61.60
22360;DHT22;11347;52.030;4.690;2022-09-24T06:00:35;18.70;61.70
22360;DHT22;11347;52.030;4.690;2022-09-24T06:03:12;18.70;61.70
22360;DHT22;11347;52.030;4.690;2022-09-24T06:05:42;18.70;62.20
22360;DHT22;11347;52.030;4.690;2022-09-24T06:08:08;18.70;62.40
22360;DHT22;11347;52.030;4.690;2022-09-24T06:10:35;18.70;62.50
22360;DHT22;11347;52.030;4.690;2022-09-24T06:13:01;18.70;62.50
22360;DHT22;11347;52.030;4.690;2022-09-24T06:15:26;18.70;62.40
22360;DHT22;11347;52.030;4.690;2022-09-24T06:17:53;18.70;62.40
22360;DHT22;11347;52.030;4.690;2022-09-24T06:20:19;18.70;62.30
22360;DHT22;11347;52.030;4.690;2022-09-24T06:22:45;18.70;62.30
22360;DHT22;11347;52.030;4.690;2022-09-24T06:25:10;18.70;62.30
22360;DHT22;11347;52.030;4.690;2022-09-24T06:27:36;18.70;62.40
22360;DHT22;11347;52.030;4.690;2022-09-24T06:30:02;18.70;62.40
22360;DHT22;11347;52.030;4.690;2022-09-24T06:32:29;18.70;62.60
22360;DHT22;11347;52.030;4.690;2022-09-24T06:34:54;18.70;62.90
22360;DHT22;11347;52.030;4.690;2022-09-24T06:37:20;18.70;63.10
22360;DHT22;11347;52.030;4.690;2022-09-24T06:39:45;18.70;63.10
22360;DHT22;11347;52.030;4.690;2022-09-24T06:42:11;18.70;63.00
22360;DHT22;11347;52.030;4.690;2022-09-24T06:44:36;18.70;63.10
22360;DHT22;11347;52.030;4.690;2022-09-24T06:47:02;18.70;63.20
22360;DHT22;11347;52.030;4.690;2022-09-24T06:49:28;18.70;63.30
22360;DHT22;11347;52.030;4.690;2022-09-24T06:51:54;18.70;63.10
22360;DHT22;11347;52.030;4.690;2022-09-24T06:54:20;18.70;63.20
22360;DHT22;11347;52.030;4.690;2022-09-24T06:56:47;18.70;63.40
22360;DHT22;11347;52.030;4.690;2022-09-24T06:59:12;18.70;64.00
22360;DHT22;11347;52.030;4.690;2022-09-24T07:01:38;18.70;64.70
22360;DHT22;11347;52.030;4.690;2022-09-24T07:04:03;18.70;64.70
22360;DHT22;11347;52.030;4.690;2022-09-24T07:06:29;18.70;64.70
22360;DHT22;11347;52.030;4.690;2022-09-24T07:09:15;18.70;64.80
22360;DHT22;11347;52.030;4.690;2022-09-24T07:11:40;18.60;64.80
22360;DHT22;11347;52.030;4.690;2022-09-24T07:14:06;18.70;65.00
22360;DHT22;11347;52.030;4.690;2022-09-24T07:16:31;18.60;65.80
22360;DHT22;11347;52.030;4.690;2022-09-24T07:18:57;18.60;65.90
22360;DHT22;11347;52.030;4.690;2022-09-24T07:21:23;18.60;65.90
22360;DHT22;11347;52.030;4.690;2022-09-24T07:23:48;18.60;66.30
22360;DHT22;11347;52.030;4.690;2022-09-24T07:26:14;18.60;65.90
22360;DHT22;11347;52.030;4.690;2022-09-24T07:28:39;18.60;64.90
22360;DHT22;11347;52.030;4.690;2022-09-24T07:31:05;18.60;64.70
22360;DHT22;11347;52.030;4.690;2022-09-24T07:33:31;18.50;64.40
22360;DHT22;11347;52.030;4.690;2022-09-24T07:35:56;18.50;64.20
22360;DHT22;11347;52.030;4.690;2022-09-24T07:38:22;18.50;64.10
22360;DHT22;11347;52.030;4.690;2022-09-24T07:40:48;18.50;64.00
22360;DHT22;11347;52.030;4.690;2022-09-24T07:43:13;18.50;63.90
22360;DHT22;11347;52.030;4.690;2022-09-24T07:45:40;18.50;63.90
22360;DHT22;11347;52.030;4.690;2022-09-24T07:48:06;18.50;64.00
22360;DHT22;11347;52.030;4.690;2022-09-24T07:50:36;18.50;63.90
22360;DHT22;11347;52.030;4.690;2022-09-24T07:53:03;18.50;63.70
22360;DHT22;11347;52.030;4.690;2022-09-24T07:55:28;18.50;63.90
22360;DHT22;11347;52.030;4.690;2022-09-24T07:57:54;18.50;63.80
22360;DHT22;11347;52.030;4.690;2022-09-24T08:00:21;18.50;63.80
22360;DHT22;11347;52.030;4.690;2022-09-24T08:02:48;18.40;63.60
22360;DHT22;11347;52.030;4.690;2022-09-24T08:05:14;18.50;63.90
22360;DHT22;11347;52.030;4.690;2022-09-24T08:07:42;18.40;63.70
22360;DHT22;11347;52.030;4.690;2022-09-24T08:10:08;18.40;63.70
22360;DHT22;11347;52.030;4.690;2022-09-24T08:12:34;18.50;63.70
22360;DHT22;11347;52.030;4.690;2022-09-24T08:14:59;18.40;63.60
22360;DHT22;11347;52.030;4.690;2022-09-24T08:17:25;18.40;63.80
22360;DHT22;11347;52.030;4.690;2022-09-24T08:19:51;18.40;63.80
22360;DHT22;11347;52.030;4.690;2022-09-24T08:22:21;18.40;63.60
22360;DHT22;11347;52.030;4.690;2022-09-24T08:24:47;18.40;63.60
22360;DHT22;11347;52.030;4.690;2022-09-24T08:27:12;18.40;64.00
22360;DHT22;11347;52.030;4.690;2022-09-24T08:29:38;18.40;63.80
22360;DHT22;11347;52.030;4.690;2022-09-24T08:32:04;18.40;63.80
22360;DHT22;11347;52.030;4.690;2022-09-24T08:34:30;18.40;63.70
22360;DHT22;11347;52.030;4.690;2022-09-24T08:36:55;18.40;63.70
22360;DHT22;11347;52.030;4.690;2022-09-24T08:39:21;18.40;63.50
22360;DHT22;11347;52.030;4.690;2022-09-24T08:44:19;18.40;63.50
22360;DHT22;11347;52.030;4.690;2022-09-24T08:47:28;18.40;63.40
22360;DHT22;11347;52.030;4.690;2022-09-24T08:55:47;18.40;63.30
22360;DHT22;11347;52.030;4.690;2022-09-24T09:09:17;18.30;63.30
22360;DHT22;11347;52.030;4.690;2022-09-24T09:12:01;18.30;63.20
22360;DHT22;11347;52.030;4.690;2022-09-24T09:19:57;18.30;63.30
22360;DHT22;11347;52.030;4.690;2022-09-24T09:22:30;18.30;63.30
22360;DHT22;11347;52.030;4.690;2022-09-24T09:25:16;18.30;63.40
22360;DHT22;11347;52.030;4.690;2022-09-24T09:27:42;18.20;63.40
22360;DHT22;11347;52.030;4.690;2022-09-24T09:30:12;18.30;63.60
22360;DHT22;11347;52.030;4.690;2022-09-24T09:35:54;18.20;63.50
22360;DHT22;11347;52.030;4.690;2022-09-24T09:38:37;18.20;63.50
22360;DHT22;11347;52.030;4.690;2022-09-24T09:41:33;18.20;63.70
22360;DHT22;11347;52.030;4.690;2022-09-24T09:44:24;18.20;63.90
22360;DHT22;11347;52.030;4.690;2022-09-24T09:49:39;18.20;63.40
22360;DHT22;11347;52.030;4.690;2022-09-24T09:52:27;18.30;63.50
22360;DHT22;11347;52.030;4.690;2022-09-24T09:54:54;18.30;63.60
22360;DHT22;11347;52.030;4.690;2022-09-24T09:57:22;18.30;63.70
22360;DHT22;11347;52.030;4.690;2022-09-24T09:59:49;18.30;63.90
22360;DHT22;11347;52.030;4.690;2022-09-24T10:02:26;18.20;63.70
22360;DHT22;11347;52.030;4.690;2022-09-24T10:04:57;18.30;63.90
22360;DHT22;11347;52.030;4.690;2022-09-24T10:07:23;18.30;64.00
22360;DHT22;11347;52.030;4.690;2022-09-24T10:10:20;18.30;64.50
22360;DHT22;11347;52.030;4.690;2022-09-24T10:12:51;18.20;63.80
22360;DHT22;11347;52.030;4.690;2022-09-24T10:15:19;18.30;63.90
22360;DHT22;11347;52.030;4.690;2022-09-24T10:17:48;18.30;64.10
22360;DHT22;11347;52.030;4.690;2022-09-24T10:20:25;18.20;63.90
22360;DHT22;11347;52.030;4.690;2022-09-24T10:22:57;18.20;63.90
22360;DHT22;11347;52.030;4.690;2022-09-24T10:25:26;18.30;64.10
22360;DHT22;11347;52.030;4.690;2022-09-24T10:27:56;18.20;64.00
22360;DHT22;11347;52.030;4.690;2022-09-24T10:30:50;18.20;64.00
22360;DHT22;11347;52.030;4.690;2022-09-24T10:33:16;18.30;64.00
22360;DHT22;11347;52.030;4.690;2022-09-24T10:35:43;18.30;63.80
22360;DHT22;11347;52.030;4.690;2022-09-24T10:38:22;18.30;64.00
22360;DHT22;11347;52.030;4.690;2022-09-24T10:40:49;18.30;63.90
22360;DHT22;11347;52.030;4.690;2022-09-24T10:43:20;18.30;64.00
22360;DHT22;11347;52.030;4.690;2022-09-24T10:49:01;18.30;64.00
22360;DHT22;11347;52.030;4.690;2022-09-24T10:54:38;18.30;64.20
22360;DHT22;11347;52.030;4.690;2022-09-24T11:08:49;18.30;64.10
22360;DHT22;11347;52.030;4.690;2022-09-24T11:11:40;18.20;64.10
22360;DHT22;11347;52.030;4.690;2022-09-24T11:25:51;18.30;64.30
22360;DHT22;11347;52.030;4.690;2022-09-24T11:28:38;18.30;64.80
22360;DHT22;11347;52.030;4.690;2022-09-24T11:31:21;18.30;64.40
22360;DHT22;11347;52.030;4.690;2022-09-24T11:50:52;18.30;64.10
22360;DHT22;11347;52.030;4.690;2022-09-24T11:56:52;18.30;64.00
22360;DHT22;11347;52.030;4.690;2022-09-24T11:59:09;18.30;64.00
22360;DHT22;11347;52.030;4.690;2022-09-24T12:01:39;18.30;64.00
22360;DHT22;11347;52.030;4.690;2022-09-24T12:04:26;18.30;64.00
22360;DHT22;11347;52.030;4.690;2022-09-24T12:07:11;18.40;63.90
22360;DHT22;11347;52.030;4.690;2022-09-24T12:09:52;18.40;63.90
22360;DHT22;11347;52.030;4.690;2022-09-24T12:12:25;18.40;63.90
22360;DHT22;11347;52.030;4.690;2022-09-24T12:14:59;18.40;63.80
22360;DHT22;11347;52.030;4.690;2022-09-24T12:17:36;18.40;63.80
22360;DHT22;11347;52.030;4.690;2022-09-24T12:23:00;18.40;63.70
22360;DHT22;11347;52.030;4.690;2022-09-24T12:25:31;18.40;63.60
22360;DHT22;11347;52.030;4.690;2022-09-24T12:27:59;18.40;63.40
22360;DHT22;11347;52.030;4.690;2022-09-24T12:30:42;18.50;63.50
22360;DHT22;11347;52.030;4.690;2022-09-24T12:33:32;18.40;63.40
22360;DHT22;11347;52.030;4.690;2022-09-24T12:36:22;18.40;63.20
22360;DHT22;11347;52.030;4.690;2022-09-24T12:38:54;18.40;63.20
22360;DHT22;11347;52.030;4.690;2022-09-24T12:41:33;18.40;63.10
22360;DHT22;11347;52.030;4.690;2022-09-24T12:46:54;18.50;63.00
22360;DHT22;11347;52.030;4.690;2022-09-24T12:52:02;18.50;63.10
22360;DHT22;11347;52.030;4.690;2022-09-24T12:54:33;18.50;63.10
22360;DHT22;11347;52.030;4.690;2022-09-24T12:57:22;18.50;63.00
22360;DHT22;11347;52.030;4.690;2022-09-24T12:59:55;18.50;63.10
22360;DHT22;11347;52.030;4.690;2022-09-24T13:02:21;18.50;62.90
22360;DHT22;11347;52.030;4.690;2022-09-24T13:07:36;18.50;62.80
22360;DHT22;11347;52.030;4.690;2022-09-24T13:12:40;18.60;62.60
22360;DHT22;11347;52.030;4.690;2022-09-24T13:15:15;18.60;62.50
22360;DHT22;11347;52.030;4.690;2022-09-24T13:17:42;18.60;62.50
22360;DHT22;11347;52.030;4.690;2022-09-24T13:20:19;18.60;62.40
22360;DHT22;11347;52.030;4.690;2022-09-24T13:22:55;18.70;62.60
22360;DHT22;11347;52.030;4.690;2022-09-24T13:25:23;18.60;62.40
22360;DHT22;11347;52.030;4.690;2022-09-24T13:28:18;18.60;62.40
22360;DHT22;11347;52.030;4.690;2022-09-24T13:30:48;18.70;62.50
22360;DHT22;11347;52.030;4.690;2022-09-24T13:33:26;18.60;62.30
22360;DHT22;11347;52.030;4.690;2022-09-24T13:36:10;18.70;62.50
22360;DHT22;11347;52.030;4.690;2022-09-24T13:38:47;18.70;62.50
22360;DHT22;11347;52.030;4.690;2022-09-24T13:41:58;18.70;62.50
22360;DHT22;11347;52.030;4.690;2022-09-24T13:44:58;18.70;62.50
22360;DHT22;11347;52.030;4.690;2022-09-24T13:49:55;18.70;62.50
22360;DHT22;11347;52.030;4.690;2022-09-24T13:52:44;18.70;62.20
22360;DHT22;11347;52.030;4.690;2022-09-24T13:55:30;18.70;62.20
22360;DHT22;11347;52.030;4.690;2022-09-24T13:57:56;18.70;61.90
22360;DHT22;11347;52.030;4.690;2022-09-24T14:00:23;18.70;62.20
22360;DHT22;11347;52.030;4.690;2022-09-24T14:03:03;18.70;62.00
22360;DHT22;11347;52.030;4.690;2022-09-24T14:05:33;18.70;61.90
22360;DHT22;11347;52.030;4.690;2022-09-24T14:08:07;18.70;61.70
22360;DHT22;11347;52.030;4.690;2022-09-24T14:10:34;18.70;61.70
22360;DHT22;11347;52.030;4.690;2022-09-24T14:15:59;18.80;61.70
22360;DHT22;11347;52.030;4.690;2022-09-24T14:18:31;18.80;61.60
22360;DHT22;11347;52.030;4.690;2022-09-24T14:21:01;18.80;61.50
22360;DHT22;11347;52.030;4.690;2022-09-24T14:23:35;18.80;61.60
22360;DHT22;11347;52.030;4.690;2022-09-24T14:26:02;18.80;61.50
22360;DHT22;11347;52.030;4.690;2022-09-24T14:28:29;18.80;61.50
22360;DHT22;11347;52.030;4.690;2022-09-24T14:30:57;18.80;61.40
22360;DHT22;11347;52.030;4.690;2022-09-24T14:33:25;18.80;61.30
22360;DHT22;11347;52.030;4.690;2022-09-24T14:35:55;18.80;61.30
22360;DHT22;11347;52.030;4.690;2022-09-24T14:38:23;18.80;61.30
22360;DHT22;11347;52.030;4.690;2022-09-24T14:40:56;18.80;61.10
22360;DHT22;11347;52.030;4.690;2022-09-24T14:43:41;18.80;61.10
22360;DHT22;11347;52.030;4.690;2022-09-24T14:46:22;18.80;61.00
22360;DHT22;11347;52.030;4.690;2022-09-24T14:48:48;18.80;61.00
22360;DHT22;11347;52.030;4.690;2022-09-24T14:51:25;18.80;60.80
22360;DHT22;11347;52.030;4.690;2022-09-24T14:54:04;18.80;60.80
22360;DHT22;11347;52.030;4.690;2022-09-24T14:56:43;18.80;60.90
22360;DHT22;11347;52.030;4.690;2022-09-24T14:59:13;18.80;60.90
22360;DHT22;11347;52.030;4.690;2022-09-24T15:01:40;18.80;60.80
22360;DHT22;11347;52.030;4.690;2022-09-24T15:04:14;18.80;60.20
22360;DHT22;11347;52.030;4.690;2022-09-24T15:06:45;18.80;60.40
22360;DHT22;11347;52.030;4.690;2022-09-24T15:09:30;18.80;60.50
22360;DHT22;11347;52.030;4.690;2022-09-24T15:12:08;18.80;60.50
22360;DHT22;11347;52.030;4.690;2022-09-24T15:14:34;18.80;60.50
22360;DHT22;11347;52.030;4.690;2022-09-24T15:17:20;18.80;60.20
22360;DHT22;11347;52.030;4.690;2022-09-24T15:19:46;18.80;60.00
22360;DHT22;11347;52.030;4.690;2022-09-24T15:22:12;18.80;59.00
22360;DHT22;11347;52.030;4.690;2022-09-24T15:24:38;18.80;59.00
22360;DHT22;11347;52.030;4.690;2022-09-24T15:27:21;18.80;57.90
22360;DHT22;11347;52.030;4.690;2022-09-24T15:29:48;18.80;59.20
22360;DHT22;11347;52.030;4.690;2022-09-24T15:32:16;18.80;58.90
22360;DHT22;11347;52.030;4.690;2022-09-24T15:34:42;18.70;57.80
22360;DHT22;11347;52.030;4.690;2022-09-24T15:37:10;18.70;58.40
22360;DHT22;11347;52.030;4.690;2022-09-24T15:39:37;18.70;58.80
22360;DHT22;11347;52.030;4.690;2022-09-24T15:42:03;18.70;59.00
22360;DHT22;11347;52.030;4.690;2022-09-24T15:44:29;18.70;58.70
22360;DHT22;11347;52.030;4.690;2022-09-24T15:46:54;18.70;58.30
22360;DHT22;11347;52.030;4.690;2022-09-24T15:49:20;18.70;58.10
22360;DHT22;11347;52.030;4.690;2022-09-24T15:51:50;18.70;58.70
22360;DHT22;11347;52.030;4.690;2022-09-24T15:54:16;18.70;58.50
22360;DHT22;11347;52.030;4.690;2022-09-24T15:56:41;18.70;58.50
22360;DHT22;11347;52.030;4.690;2022-09-24T15:59:16;18.70;58.10
22360;DHT22;11347;52.030;4.690;2022-09-24T16:01:42;18.70;57.70
22360;DHT22;11347;52.030;4.690;2022-09-24T16:04:10;18.70;57.70
22360;DHT22;11347;52.030;4.690;2022-09-24T16:06:36;18.70;58.20
22360;DHT22;11347;52.030;4.690;2022-09-24T16:09:02;18.70;57.80
22360;DHT22;11347;52.030;4.690;2022-09-24T16:11:28;18.70;57.90
22360;DHT22;11347;52.030;4.690;2022-09-24T16:13:54;18.70;57.70
22360;DHT22;11347;52.030;4.690;2022-09-24T16:16:19;18.70;57.70
22360;DHT22;11347;52.030;4.690;2022-09-24T16:18:45;18.70;57.70
22360;DHT22;11347;52.030;4.690;2022-09-24T16:21:10;18.70;57.70
22360;DHT22;11347;52.030;4.690;2022-09-24T16:23:36;18.70;57.70
22360;DHT22;11347;52.030;4.690;2022-09-24T16:26:02;18.70;57.70
22360;DHT22;11347;52.030;4.690;2022-09-24T16:28:28;18.70;57.70
22360;DHT22;11347;52.030;4.690;2022-09-24T16:30:54;18.70;57.70
22360;DHT22;11347;52.030;4.690;2022-09-24T16:33:20;18.60;57.60
22360;DHT22;11347;52.030;4.690;2022-09-24T16:35:46;18.70;56.80
22360;DHT22;11347;52.030;4.690;2022-09-24T16:38:12;18.70;57.70
22360;DHT22;11347;52.030;4.690;2022-09-24T16:40:37;18.60;57.60
22360;DHT22;11347;52.030;4.690;2022-09-24T16:43:03;18.60;57.40
22360;DHT22;11347;52.030;4.690;2022-09-24T16:45:30;18.60;57.60
22360;DHT22;11347;52.030;4.690;2022-09-24T16:47:56;18.60;57.60
22360;DHT22;11347;52.030;4.690;2022-09-24T16:50:22;18.60;57.60
22360;DHT22;11347;52.030;4.690;2022-09-24T16:52:50;18.60;57.60
22360;DHT22;11347;52.030;4.690;2022-09-24T16:55:19;18.60;57.60
22360;DHT22;11347;52.030;4.690;2022-09-24T16:57:45;18.60;57.60
22360;DHT22;11347;52.030;4.690;2022-09-24T17:00:11;18.60;57.60
22360;DHT22;11347;52.030;4.690;2022-09-24T17:02:38;18.60;57.60
22360;DHT22;11347;52.030;4.690;2022-09-24T17:05:03;18.60;57.60
22360;DHT22;11347;52.030;4.690;2022-09-24T17:07:30;18.60;57.60
22360;DHT22;11347;52.030;4.690;2022-09-24T17:09:57;18.60;57.60
22360;DHT22;11347;52.030;4.690;2022-09-24T17:12:46;18.50;57.50
22360;DHT22;11347;52.030;4.690;2022-09-24T17:15:13;18.60;57.60
22360;DHT22;11347;52.030;4.690;2022-09-24T17:17:40;18.50;57.50
22360;DHT22;11347;52.030;4.690;2022-09-24T17:20:06;18.50;57.50
22360;DHT22;11347;52.030;4.690;2022-09-24T17:22:32;18.50;57.50
22360;DHT22;11347;52.030;4.690;2022-09-24T17:24:58;18.50;57.50
22360;DHT22;11347;52.030;4.690;2022-09-24T17:27:24;18.50;57.50
22360;DHT22;11347;52.030;4.690;2022-09-24T17:29:50;18.50;57.50
22360;DHT22;11347;52.030;4.690;2022-09-24T17:32:15;18.50;57.50
22360;DHT22;11347;52.030;4.690;2022-09-24T17:34:41;18.50;57.50
22360;DHT22;11347;52.030;4.690;2022-09-24T17:37:06;18.50;57.50
22360;DHT22;11347;52.030;4.690;2022-09-24T17:39:32;18.40;57.40